createdAt,value
2023-11-27T00:00:37.471Z,16.25
2023-11-27T00:03:07.139Z,16.17
2023-11-27T00:05:33.741Z,15.68
2023-11-27T00:08:00.553Z,14.68
2023-11-27T00:10:27.142Z,14.68
2023-11-27T00:12:56.469Z,14.48
2023-11-27T00:15:23.224Z,13.95
2023-11-27T00:17:50.121Z,14.82
2023-11-27T00:20:17.184Z,14.43
2023-11-27T00:22:45.195Z,13.77
2023-11-27T00:25:12.034Z,13.55
2023-11-27T00:27:39.153Z,14.38
2023-11-27T00:30:08.496Z,13.65
2023-11-27T00:32:37.729Z,13.27
2023-11-27T00:35:04.320Z,12.93
2023-11-27T00:37:30.857Z,13.68
2023-11-27T00:39:57.422Z,12.70
2023-11-27T00:42:24.793Z,12.48
2023-11-27T00:44:51.424Z,12.73
2023-11-27T00:47:18.700Z,12.13
2023-11-27T00:49:45.603Z,11.88
2023-11-27T00:52:12.344Z,12.73
2023-11-27T00:54:39.191Z,12.73
2023-11-27T00:57:06.026Z,12.18
2023-11-27T00:59:32.931Z,11.02
2023-11-27T01:04:55.115Z,12.07
2023-11-27T01:07:25.309Z,13.10
2023-11-27T01:09:53.142Z,11.52
2023-11-27T01:12:19.857Z,13.57
2023-11-27T01:14:46.731Z,13.10
2023-11-27T01:17:14.536Z,12.82
2023-11-27T01:19:41.336Z,14.07
2023-11-27T01:22:09.463Z,13.65
2023-11-27T01:24:36.829Z,14.23
2023-11-27T01:27:03.415Z,13.50
2023-11-27T01:29:29.967Z,14.30
2023-11-27T01:31:57.038Z,13.23
2023-11-27T01:34:23.847Z,14.88
2023-11-27T01:36:51.204Z,15.77
2023-11-27T01:39:18.915Z,15.20
2023-11-27T01:41:45.426Z,14.77
2023-11-27T01:44:12.042Z,16.73
2023-11-27T01:46:44.690Z,17.73
2023-11-27T01:49:15.636Z,18.52
2023-11-27T01:51:43.253Z,17.15
2023-11-27T01:54:10.534Z,16.85
2023-11-27T01:56:40.624Z,16.38
2023-11-27T01:59:07.890Z,18.40
2023-11-27T02:01:36.240Z,19.92
2023-11-27T02:04:03.935Z,19.30
2023-11-27T02:06:30.552Z,18.60
2023-11-27T02:08:57.707Z,17.35
2023-11-27T02:11:26.637Z,18.50
2023-11-27T02:13:53.224Z,20.08
2023-11-27T02:16:19.792Z,21.13
2023-11-27T02:18:46.398Z,21.65
2023-11-27T02:21:14.989Z,23.58
2023-11-27T02:23:42.746Z,20.88
2023-11-27T02:26:09.589Z,21.98
2023-11-27T02:28:48.074Z,23.85
2023-11-27T02:31:15.647Z,22.55
2023-11-27T02:33:44.580Z,23.00
2023-11-27T02:36:11.813Z,23.50
2023-11-27T02:38:39.762Z,21.48
2023-11-27T02:41:06.695Z,26.23
2023-11-27T02:43:33.541Z,24.63
2023-11-27T02:46:00.448Z,23.25
2023-11-27T02:48:27.188Z,25.63
2023-11-27T02:50:54.488Z,23.08
2023-11-27T02:53:21.185Z,25.17
2023-11-27T02:55:47.685Z,25.42
2023-11-27T02:58:14.318Z,26.05
2023-11-27T03:00:40.917Z,20.52
2023-11-27T03:03:07.521Z,23.17
2023-11-27T03:05:34.265Z,22.48
2023-11-27T03:08:00.710Z,22.92
2023-11-27T03:10:27.225Z,22.58
2023-11-27T03:12:53.757Z,22.02
2023-11-27T03:15:21.576Z,23.90
2023-11-27T03:17:48.349Z,23.10
2023-11-27T03:20:14.891Z,22.35
2023-11-27T03:22:41.412Z,19.20
2023-11-27T03:25:08.367Z,21.40
2023-11-27T03:27:34.944Z,21.83
2023-11-27T03:30:04.784Z,21.60
2023-11-27T03:32:32.515Z,20.05
2023-11-27T03:34:59.195Z,19.15
2023-11-27T03:37:25.729Z,19.47
2023-11-27T03:39:52.280Z,20.70
2023-11-27T03:42:18.660Z,17.95
2023-11-27T03:44:45.228Z,15.77
2023-11-27T03:47:11.679Z,17.83
2023-11-27T03:49:38.377Z,17.27
2023-11-27T03:52:05.208Z,17.00
2023-11-27T03:54:31.859Z,16.88
2023-11-27T03:56:58.247Z,16.27
2023-11-27T03:59:25.001Z,16.05
2023-11-27T04:01:51.816Z,16.70
2023-11-27T04:04:18.764Z,15.68
2023-11-27T04:06:46.625Z,13.43
2023-11-27T04:09:14.628Z,14.93
2023-11-27T04:11:41.169Z,16.20
2023-11-27T04:14:07.909Z,14.10
2023-11-27T04:16:34.696Z,14.98
2023-11-27T04:19:01.318Z,15.45
2023-11-27T04:21:27.740Z,14.13
2023-11-27T04:23:54.183Z,14.60
2023-11-27T04:26:22.924Z,15.00
2023-11-27T04:28:50.249Z,14.18
2023-11-27T04:31:16.838Z,14.55
2023-11-27T04:33:43.405Z,13.75
2023-11-27T04:36:10.229Z,15.23
2023-11-27T04:38:37.448Z,14.87
2023-11-27T04:41:04.025Z,16.17
2023-11-27T04:43:30.476Z,14.73
2023-11-27T04:45:56.988Z,14.95
2023-11-27T04:48:24.207Z,14.32
2023-11-27T04:50:50.970Z,14.50
2023-11-27T04:53:17.530Z,14.40
2023-11-27T04:55:44.160Z,14.45
2023-11-27T04:58:10.879Z,14.80
2023-11-27T05:00:37.885Z,13.20
2023-11-27T05:03:04.644Z,14.43
2023-11-27T05:05:31.386Z,13.40
2023-11-27T05:07:57.997Z,13.80
2023-11-27T05:10:24.682Z,13.88
2023-11-27T05:12:51.408Z,13.93
2023-11-27T05:15:18.719Z,13.10
2023-11-27T05:17:46.747Z,12.68
2023-11-27T05:20:13.708Z,13.75
2023-11-27T05:22:40.355Z,15.00
2023-11-27T05:25:07.129Z,13.93
2023-11-27T05:27:33.614Z,14.50
2023-11-27T05:30:00.225Z,13.80
2023-11-27T05:32:26.841Z,14.68
2023-11-27T05:34:53.733Z,14.60
2023-11-27T05:37:20.324Z,13.98
2023-11-27T05:39:46.910Z,15.48
2023-11-27T05:42:13.581Z,14.85
2023-11-27T05:44:40.667Z,15.48
2023-11-27T05:47:07.184Z,16.40
2023-11-27T05:49:34.737Z,15.73
2023-11-27T05:52:01.439Z,16.35
2023-11-27T05:54:28.605Z,15.40
2023-11-27T05:56:55.602Z,15.80
2023-11-27T05:59:22.266Z,15.77
2023-11-27T06:01:49.084Z,16.30
2023-11-27T06:04:16.022Z,17.35
2023-11-27T06:06:42.555Z,17.88
2023-11-27T06:09:09.823Z,16.92
2023-11-27T06:11:36.552Z,16.67
2023-11-27T06:14:04.394Z,16.70
2023-11-27T06:16:30.902Z,17.10
2023-11-27T06:18:57.496Z,18.20
2023-11-27T06:21:24.071Z,18.38
2023-11-27T06:23:52.843Z,17.58
2023-11-27T06:26:19.576Z,18.17
2023-11-27T06:28:46.374Z,19.48
2023-11-27T06:31:13.033Z,18.15
2023-11-27T06:33:39.739Z,18.15
2023-11-27T06:36:06.850Z,18.90
2023-11-27T06:38:33.234Z,18.23
2023-11-27T06:40:59.895Z,19.25
2023-11-27T06:43:26.526Z,19.20
2023-11-27T06:45:55.291Z,19.92
2023-11-27T06:48:21.918Z,19.55
2023-11-27T06:50:48.654Z,20.10
2023-11-27T06:53:15.228Z,21.75
2023-11-27T06:55:41.689Z,24.27
2023-11-27T06:58:09.184Z,23.23
2023-11-27T07:00:35.720Z,23.45
2023-11-27T07:03:02.209Z,24.50
2023-11-27T07:05:28.703Z,24.20
2023-11-27T07:07:55.176Z,27.90
2023-11-27T07:10:21.641Z,25.45
2023-11-27T07:12:48.132Z,26.50
2023-11-27T07:15:14.705Z,28.05
2023-11-27T07:17:41.283Z,25.70
2023-11-27T07:20:08.128Z,26.63
2023-11-27T07:22:34.822Z,26.73
2023-11-27T07:25:01.341Z,29.48
2023-11-27T07:27:29.783Z,26.52
2023-11-27T07:29:56.295Z,26.15
2023-11-27T07:32:22.974Z,26.00
2023-11-27T07:34:49.493Z,26.55
2023-11-27T07:37:16.295Z,23.80
2023-11-27T07:39:44.006Z,24.83
2023-11-27T07:42:10.513Z,23.42
2023-11-27T07:44:37.438Z,21.35
2023-11-27T07:47:04.246Z,23.33
2023-11-27T07:49:30.914Z,24.30
2023-11-27T07:51:59.471Z,21.58
2023-11-27T07:54:26.691Z,23.20
2023-11-27T07:56:54.667Z,21.88
2023-11-27T07:59:21.183Z,23.45
2023-11-27T08:01:47.711Z,20.80
2023-11-27T08:04:14.255Z,20.63
2023-11-27T08:06:40.862Z,23.65
2023-11-27T08:09:08.671Z,21.98
2023-11-27T08:11:35.664Z,21.70
2023-11-27T08:14:02.237Z,21.20
2023-11-27T08:16:28.911Z,20.58
2023-11-27T08:18:55.378Z,20.30
2023-11-27T08:21:21.957Z,20.65
2023-11-27T08:23:48.947Z,18.95
2023-11-27T08:26:16.256Z,18.60
2023-11-27T08:28:42.755Z,18.25
2023-11-27T08:31:10.395Z,17.20
2023-11-27T08:33:37.324Z,19.08
2023-11-27T08:36:04.743Z,18.17
2023-11-27T08:38:34.418Z,18.30
2023-11-27T08:41:00.874Z,18.65
2023-11-27T08:43:30.185Z,18.93
2023-11-27T08:45:56.751Z,18.38
2023-11-27T08:48:23.220Z,16.83
2023-11-27T08:50:49.759Z,17.30
2023-11-27T08:53:16.108Z,16.80
2023-11-27T08:55:42.635Z,16.90
2023-11-27T08:58:10.405Z,15.82
2023-11-27T09:00:37.337Z,16.50
2023-11-27T09:03:04.315Z,16.73
2023-11-27T09:05:35.128Z,17.17
2023-11-27T09:08:08.082Z,17.38
2023-11-27T09:10:36.548Z,15.48
2023-11-27T09:13:05.479Z,16.52
2023-11-27T09:15:32.509Z,15.82
2023-11-27T09:18:00.333Z,14.77
2023-11-27T09:20:26.982Z,16.17
2023-11-27T09:22:53.899Z,14.02
2023-11-27T09:25:21.039Z,16.20
2023-11-27T09:27:47.595Z,15.05
2023-11-27T09:30:14.187Z,14.77
2023-11-27T09:32:41.053Z,15.48
2023-11-27T09:35:10.074Z,15.60
2023-11-27T09:37:37.809Z,16.58
2023-11-27T09:40:06.395Z,16.90
2023-11-27T09:42:46.603Z,17.33
2023-11-27T09:45:17.781Z,16.40
2023-11-27T09:47:46.404Z,15.75
2023-11-27T09:50:14.109Z,15.70
2023-11-27T09:52:43.529Z,17.95
2023-11-27T09:55:11.451Z,16.77
2023-11-27T09:57:40.439Z,17.38
2023-11-27T10:00:09.770Z,17.80
2023-11-27T10:02:36.740Z,17.25
2023-11-27T10:05:06.100Z,18.10
2023-11-27T10:07:38.581Z,16.10
2023-11-27T10:10:08.972Z,18.55
2023-11-27T10:12:39.925Z,17.63
2023-11-27T10:15:12.668Z,18.50
2023-11-27T10:17:43.073Z,17.80
2023-11-27T10:20:13.812Z,17.10
2023-11-27T10:22:43.754Z,16.25
2023-11-27T10:25:15.119Z,18.50
2023-11-27T10:27:44.801Z,16.73
2023-11-27T10:30:21.500Z,16.52
2023-11-27T10:32:48.776Z,17.85
2023-11-27T10:35:16.841Z,16.70
2023-11-27T10:37:43.849Z,17.05
2023-11-27T10:40:17.071Z,16.98
2023-11-27T10:42:46.324Z,15.73
2023-11-27T10:45:15.698Z,16.60
2023-11-27T10:47:44.675Z,17.02
2023-11-27T10:50:13.913Z,16.80
2023-11-27T10:52:42.081Z,16.63
2023-11-27T10:55:10.458Z,16.90
2023-11-27T10:57:39.001Z,16.00
2023-11-27T11:00:06.281Z,17.77
2023-11-27T11:02:34.897Z,17.85
2023-11-27T11:05:03.776Z,16.95
2023-11-27T11:07:34.620Z,16.75
2023-11-27T11:10:06.752Z,16.67
2023-11-27T11:12:33.792Z,18.20
2023-11-27T11:15:01.091Z,17.55
2023-11-27T11:17:46.224Z,17.20
2023-11-27T11:20:15.361Z,17.15
2023-11-27T11:22:41.842Z,16.30
2023-11-27T11:25:29.591Z,16.98
2023-11-27T11:28:07.021Z,17.67
2023-11-27T11:30:35.976Z,16.40
2023-11-27T11:33:09.502Z,16.15
2023-11-27T11:35:38.002Z,15.10
2023-11-27T11:38:18.015Z,16.83
2023-11-27T11:40:48.948Z,15.93
2023-11-27T11:43:17.182Z,16.83
2023-11-27T11:45:44.576Z,17.38
2023-11-27T11:48:15.649Z,17.45
2023-11-27T11:50:42.749Z,16.85
2023-11-27T11:53:15.580Z,17.27
2023-11-27T11:55:42.221Z,20.17
2023-11-27T11:58:21.158Z,17.10
2023-11-27T12:00:48.645Z,18.30
2023-11-27T12:03:20.681Z,18.75
2023-11-27T12:05:54.726Z,17.55
2023-11-27T12:08:24.927Z,17.90
2023-11-27T12:10:52.919Z,19.05
2023-11-27T12:13:24.671Z,18.67
2023-11-27T12:15:52.479Z,20.27
2023-11-27T12:18:21.155Z,19.70
2023-11-27T12:20:51.386Z,20.00
2023-11-27T12:23:19.230Z,23.83
2023-11-27T12:25:45.964Z,20.50
2023-11-27T12:28:13.033Z,20.83
2023-11-27T12:30:40.072Z,19.98
2023-11-27T12:33:07.884Z,18.08
2023-11-27T12:35:34.955Z,28.42
2023-11-27T12:38:06.042Z,19.58
2023-11-27T12:40:35.563Z,18.33
2023-11-27T12:43:06.007Z,17.75
2023-11-27T12:45:33.462Z,18.92
2023-11-27T12:48:00.086Z,21.20
2023-11-27T12:50:30.404Z,19.13
2023-11-27T12:53:08.392Z,24.23
2023-11-27T12:55:38.573Z,19.42
2023-11-27T12:58:05.293Z,20.73
2023-11-27T13:00:34.808Z,19.00
2023-11-27T13:03:05.139Z,18.92
2023-11-27T13:05:32.330Z,18.77
2023-11-27T13:08:00.873Z,18.02
2023-11-27T13:10:27.996Z,18.23
2023-11-27T13:12:56.059Z,20.50
2023-11-27T13:15:26.588Z,19.52
2023-11-27T13:18:00.783Z,18.98
2023-11-27T13:20:28.387Z,18.75
2023-11-27T13:22:55.268Z,26.23
2023-11-27T13:25:35.894Z,19.23
2023-11-27T13:28:03.608Z,20.45
2023-11-27T13:30:30.419Z,19.05
2023-11-27T13:33:00.229Z,18.20
2023-11-27T13:35:33.404Z,18.60
2023-11-27T13:38:04.193Z,18.75
2023-11-27T13:40:36.545Z,18.73
2023-11-27T13:43:09.373Z,18.55
2023-11-27T13:45:36.618Z,18.55
2023-11-27T13:48:05.071Z,18.33
2023-11-27T13:50:38.220Z,18.17
2023-11-27T13:53:06.650Z,18.48
2023-11-27T13:55:36.707Z,18.30
2023-11-27T13:58:07.892Z,18.80
2023-11-27T14:00:35.449Z,19.27
2023-11-27T14:03:04.095Z,21.00
2023-11-27T14:05:38.441Z,20.17
2023-11-27T14:08:11.093Z,21.27
2023-11-27T14:10:55.749Z,22.25
2023-11-27T14:13:23.004Z,20.83
2023-11-27T14:15:49.964Z,20.35
2023-11-27T14:18:23.043Z,19.63
2023-11-27T14:21:09.071Z,20.83
2023-11-27T14:23:41.527Z,20.58
2023-11-27T14:26:11.354Z,19.70
2023-11-27T14:28:44.704Z,21.58
2023-11-27T14:31:11.755Z,21.75
2023-11-27T14:33:38.600Z,20.67
2023-11-27T14:36:05.281Z,21.05
2023-11-27T14:38:31.722Z,21.58
2023-11-27T14:40:58.701Z,21.88
2023-11-27T14:43:30.497Z,22.20
2023-11-27T14:45:58.184Z,21.95
2023-11-27T14:48:31.670Z,23.95
2023-11-27T14:50:58.414Z,29.20
2023-11-27T14:53:24.787Z,24.55
2023-11-27T14:55:54.318Z,24.25
2023-11-27T14:58:24.824Z,24.13
2023-11-27T15:00:53.238Z,26.70
2023-11-27T15:03:20.919Z,27.70
2023-11-27T15:05:49.680Z,25.42
2023-11-27T15:08:16.714Z,24.70
2023-11-27T15:10:44.434Z,26.42
2023-11-27T15:13:12.748Z,28.95
2023-11-27T15:15:39.292Z,27.13
2023-11-27T15:18:07.114Z,26.85
2023-11-27T15:20:36.281Z,25.45
2023-11-27T15:23:04.346Z,26.77
2023-11-27T15:25:32.769Z,24.15
2023-11-27T15:27:59.390Z,26.17
2023-11-27T15:30:26.107Z,23.25
2023-11-27T15:32:52.718Z,25.50
2023-11-27T15:35:20.986Z,26.50
2023-11-27T15:37:50.591Z,25.00
2023-11-27T15:40:21.401Z,25.25
2023-11-27T15:42:48.508Z,25.48
2023-11-27T15:45:16.748Z,26.48
2023-11-27T15:47:43.437Z,26.38
2023-11-27T15:50:14.795Z,27.67
2023-11-27T15:52:42.043Z,25.73
2023-11-27T15:55:10.225Z,27.17
2023-11-27T15:57:36.872Z,27.83
2023-11-27T16:00:04.716Z,29.25
2023-11-27T16:02:31.968Z,29.77
2023-11-27T16:04:58.986Z,33.10
2023-11-27T16:07:25.534Z,35.42
2023-11-27T16:09:52.217Z,30.98
2023-11-27T16:12:18.838Z,33.45
2023-11-27T16:14:46.422Z,30.07
2023-11-27T16:17:16.441Z,31.30
2023-11-27T16:19:43.505Z,27.30
2023-11-27T16:22:11.311Z,30.77
2023-11-27T16:24:39.715Z,34.80
2023-11-27T16:27:07.075Z,27.75
2023-11-27T16:29:35.067Z,28.45
2023-11-27T16:32:02.336Z,27.58
2023-11-27T16:34:32.930Z,25.83
2023-11-27T16:36:59.405Z,27.67
2023-11-27T16:39:26.390Z,24.90
2023-11-27T16:41:53.107Z,24.42
2023-11-27T16:44:19.964Z,21.95
2023-11-27T16:46:46.633Z,19.05
2023-11-27T16:49:13.811Z,17.65
2023-11-27T16:51:41.075Z,11.70
2023-11-27T16:54:11.784Z,6.85
2023-11-27T16:56:38.790Z,10.63
2023-11-27T16:59:05.426Z,9.98
2023-11-27T17:01:34.458Z,8.82
2023-11-27T17:04:01.278Z,9.48
2023-11-27T17:06:29.238Z,9.95
2023-11-27T17:08:56.580Z,6.22
2023-11-27T17:11:23.228Z,6.07
2023-11-27T17:13:50.511Z,8.82
2023-11-27T17:16:17.902Z,6.50
2023-11-27T17:18:44.674Z,10.25
2023-11-27T17:21:11.238Z,10.13
2023-11-27T17:23:38.950Z,8.90
2023-11-27T17:26:06.924Z,12.93
2023-11-27T17:28:33.321Z,9.23
2023-11-27T17:30:59.706Z,9.07
2023-11-27T17:33:26.222Z,9.27
2023-11-27T17:35:52.920Z,10.18
2023-11-27T17:38:19.516Z,8.30
2023-11-27T17:40:45.973Z,10.75
2023-11-27T17:43:17.557Z,7.93
2023-11-27T17:45:47.220Z,9.10
2023-11-27T17:48:17.216Z,7.97
2023-11-27T17:50:44.372Z,10.43
2023-11-27T17:53:10.984Z,7.70
2023-11-27T17:55:45.548Z,9.00
2023-11-27T17:58:18.902Z,9.15
2023-11-27T18:00:48.026Z,11.82
2023-11-27T18:03:15.486Z,10.68
2023-11-27T18:05:42.187Z,8.00
2023-11-27T18:08:13.006Z,6.93
2023-11-27T18:10:39.562Z,9.05
2023-11-27T18:13:06.864Z,9.95
2023-11-27T18:15:33.826Z,10.57
2023-11-27T18:18:01.376Z,5.70
2023-11-27T18:20:29.118Z,4.57
2023-11-27T18:22:55.613Z,9.32
2023-11-27T18:25:24.643Z,7.50
2023-11-27T18:28:00.835Z,6.82
2023-11-27T18:30:28.563Z,9.00
2023-11-27T18:32:55.795Z,10.98
2023-11-27T18:35:22.693Z,8.57
2023-11-27T18:37:50.247Z,9.18
2023-11-27T18:40:19.129Z,6.05
2023-11-27T18:42:50.057Z,7.82
2023-11-27T18:45:20.369Z,8.82
2023-11-27T18:47:47.596Z,8.00
2023-11-27T18:50:14.197Z,8.50
2023-11-27T18:52:41.756Z,7.07
2023-11-27T18:55:08.528Z,8.95
2023-11-27T18:57:37.000Z,6.55
2023-11-27T19:00:06.016Z,5.20
2023-11-27T19:02:36.069Z,9.02
2023-11-27T19:05:02.733Z,9.43
2023-11-27T19:07:29.427Z,4.38
2023-11-27T19:09:56.420Z,6.60
2023-11-27T19:12:23.550Z,8.65
2023-11-27T19:14:53.146Z,7.15
2023-11-27T19:17:21.110Z,6.43
2023-11-27T19:19:47.905Z,4.72
2023-11-27T19:22:14.657Z,4.78
2023-11-27T19:24:41.263Z,3.33
2023-11-27T19:27:08.604Z,5.60
2023-11-27T19:29:36.237Z,4.77
2023-11-27T19:32:02.954Z,5.60
2023-11-27T19:34:32.732Z,5.32
2023-11-27T19:36:59.516Z,4.93
2023-11-27T19:39:26.850Z,7.57
2023-11-27T19:41:53.774Z,4.23
2023-11-27T19:44:21.996Z,5.68
2023-11-27T19:46:51.806Z,4.93
2023-11-27T19:49:20.584Z,5.13
2023-11-27T19:51:48.161Z,7.57
2023-11-27T19:54:19.537Z,11.10
2023-11-27T19:56:46.580Z,7.90
2023-11-27T19:59:13.182Z,11.55
2023-11-27T20:01:40.390Z,7.28
2023-11-27T20:04:06.896Z,5.22
2023-11-27T20:06:33.320Z,6.87
2023-11-27T20:09:00.261Z,5.32
2023-11-27T20:11:26.748Z,5.95
2023-11-27T20:13:53.923Z,5.60
2023-11-27T20:16:21.225Z,4.07
2023-11-27T20:18:47.905Z,8.63
2023-11-27T20:21:16.368Z,12.05
2023-11-27T20:23:43.329Z,7.53
2023-11-27T20:26:09.806Z,9.10
2023-11-27T20:28:36.446Z,10.48
2023-11-27T20:31:03.344Z,10.00
2023-11-27T20:33:33.460Z,5.65
2023-11-27T20:36:00.077Z,8.02
2023-11-27T20:38:26.994Z,8.43
2023-11-27T20:40:56.251Z,8.52
2023-11-27T20:43:25.424Z,5.03
2023-11-27T20:45:52.396Z,6.50
2023-11-27T20:48:20.095Z,8.40
2023-11-27T20:50:46.704Z,11.20
2023-11-27T20:53:13.361Z,9.43
2023-11-27T20:55:39.815Z,9.07
2023-11-27T20:58:06.337Z,10.32
2023-11-27T21:00:33.070Z,8.13
2023-11-27T21:02:59.527Z,11.30
2023-11-27T21:05:26.302Z,12.35
2023-11-27T21:07:54.093Z,8.13
2023-11-27T21:10:21.620Z,8.38
2023-11-27T21:12:49.408Z,10.98
2023-11-27T21:15:15.939Z,8.18
2023-11-27T21:17:42.540Z,6.50
2023-11-27T21:20:11.744Z,5.50
2023-11-27T21:22:39.221Z,9.85
2023-11-27T21:25:06.954Z,8.02
2023-11-27T21:27:33.451Z,6.15
2023-11-27T21:29:59.869Z,9.38
2023-11-27T21:32:26.367Z,8.80
2023-11-27T21:34:53.063Z,8.85
2023-11-27T21:37:19.583Z,10.43
2023-11-27T21:39:46.026Z,10.93
2023-11-27T21:42:12.533Z,10.00
2023-11-27T21:44:38.879Z,9.37
2023-11-27T21:47:07.332Z,7.85
2023-11-27T21:49:33.818Z,13.80
2023-11-27T21:52:00.307Z,8.55
2023-11-27T21:54:26.748Z,8.38
2023-11-27T21:56:53.233Z,11.43
2023-11-27T21:59:19.787Z,9.55
2023-11-27T22:01:46.391Z,9.13
2023-11-27T22:04:12.933Z,12.95
2023-11-27T22:06:39.819Z,11.93
2023-11-27T22:09:07.360Z,11.23
2023-11-27T22:11:33.965Z,7.88
2023-11-27T22:14:00.584Z,8.43
2023-11-27T22:16:27.727Z,8.90
2023-11-27T22:18:54.345Z,8.35
2023-11-27T22:21:20.785Z,7.70
2023-11-27T22:23:47.243Z,8.77
2023-11-27T22:26:13.756Z,9.15
2023-11-27T22:28:40.255Z,11.35
2023-11-27T22:31:06.883Z,10.10
2023-11-27T22:33:33.370Z,6.73
2023-11-27T22:35:59.928Z,11.98
2023-11-27T22:38:26.673Z,11.05
2023-11-27T22:40:54.738Z,11.02
2023-11-27T22:43:21.293Z,9.88
2023-11-27T22:45:47.713Z,9.60
2023-11-27T22:48:14.290Z,13.93
2023-11-27T22:50:40.764Z,11.73
2023-11-27T22:53:07.306Z,10.40
2023-11-27T22:55:33.729Z,13.77
2023-11-27T22:58:00.252Z,8.47
2023-11-27T23:00:27.720Z,8.40
2023-11-27T23:02:56.486Z,9.93
2023-11-27T23:05:23.154Z,8.57
2023-11-27T23:07:50.399Z,8.68
2023-11-27T23:10:17.026Z,5.03
2023-11-27T23:12:43.583Z,7.20
2023-11-27T23:15:12.359Z,11.10
2023-11-27T23:17:39.799Z,9.75
2023-11-27T23:20:06.704Z,7.57
2023-11-27T23:22:33.519Z,8.37
2023-11-27T23:24:59.974Z,9.77
2023-11-27T23:27:26.670Z,7.80
2023-11-27T23:29:53.338Z,7.45
2023-11-27T23:32:19.952Z,8.52
2023-11-27T23:34:46.601Z,9.57
2023-11-27T23:37:13.014Z,8.82
2023-11-27T23:39:39.455Z,9.80
2023-11-27T23:42:06.085Z,7.80
2023-11-27T23:44:32.506Z,7.65
2023-11-27T23:46:59.086Z,10.00
2023-11-27T23:49:27.015Z,6.50
2023-11-27T23:51:54.819Z,8.05
2023-11-27T23:54:21.555Z,8.32
2023-11-27T23:56:48.201Z,9.02
2023-11-27T23:59:14.887Z,9.00
